Hendersonville, North Carolina
Current Conditions -  °F | °C
As of 6:54 PM on Thursday 18 Dec 2014 (Local Time) from KAVL Reporting Station
Overcast Overcast  
Wind Chill: 34°   Ceiling: 5000
Heat Index: 43°   Visibility: 10mi
Dew Point: 27°   Wind: 20mph
Humidity: 53%   Direction: 340°NNW
Pressure: 30.1"   Gusts: 29mph
Location:  35.32°N, 82.46°W
Report Text: KAVL 182354Z 34017G25KT 10SM OVC050 06/M03 A3010 RMK AO2 PK WND 34026/2337 SLP195 T00611028 10133 20061 53015
Loading
Personal Weather Stations






























Interactive Weather Map New forecast layout! Learn more

10-Day Weather Forecast

Advertisements
Track Severe Weather on mobile